WetterOnline ( http://www.wetteronline.de )

Wetter aktuell Zwickau

Aktuelles Wetter: Plauen (389m)

6-stündlich | Neueste Meldungen
Ortszeit Temperatur Wetter
Mi, 26.09. 8:00 0.4° C wolkig
Mi, 26.09. 2:00 0.6° C wolkig
Di, 25.09. 20:00 6.9° C wolkenlos
Di, 25.09. 14:00 9.9° C bewölkt
Di, 25.09. 8:00 3.6° C wolkenlos
Di, 25.09. 2:00 4.1° C wolkenlos
Mo, 24.09. 20:00 6.0° C bewölkt
Mo, 24.09. 14:00 12.1° C leicht bewölkt
Ortszeit Temperatur Wetter
Mi, 26.09. 12:00 12.6° C fast wolkenlos
Mi, 26.09. 11:50 12.6° C fast wolkenlos
Mi, 26.09. 11:40 12.0° C wolkenlos
Mi, 26.09. 11:30 11.3° C leicht bewölkt
Mi, 26.09. 11:20 11.3° C leicht bewölkt
Mi, 26.09. 11:10 10.9° C fast wolkenlos
Mi, 26.09. 11:00 10.6° C wolkenlos
Mi, 26.09. 10:30 8.9° C fast wolkenlos
Mi, 26.09. 10:00 7.9° C leicht bewölkt
Mi, 26.09. 9:30 6.3° C fast wolkenlos
Mi, 26.09. 9:00 3.1° C wolkenlos
Ortszeit Relative Feuchte Sichtweite
Mi, 26.09. 8:00 90% 24 km
Mi, 26.09. 2:00 92% 30 km
Di, 25.09. 20:00 70% 45 km
Di, 25.09. 14:00 51% 70 km
Di, 25.09. 8:00 94% 18 km
Di, 25.09. 2:00 93% 45 km
Mo, 24.09. 20:00 95% 14 km
Mo, 24.09. 14:00 64% 25 km
Ortszeit Relative Feuchte Sichtweite
Mi, 26.09. 12:00 40% 20 km
Mi, 26.09. 11:50 40% -
Mi, 26.09. 11:40 39% -
Mi, 26.09. 11:30 41% 30 km
Mi, 26.09. 11:20 41% -
Mi, 26.09. 11:10 41% -
Mi, 26.09. 11:00 42% 30 km
Mi, 26.09. 10:30 54% 50 km
Mi, 26.09. 10:00 59% 45 km
Mi, 26.09. 9:30 64% 45 km
Mi, 26.09. 9:00 79% 30 km
Ortszeit Niederschlagsmenge Niederschlagsart
Mi, 26.09. 8:00 0.0 l/m2 in 12 Std. -
Mi, 26.09. 2:00 0.0 l/m2 in 6 Std. -
Di, 25.09. 20:00 0.0 l/m2 in 12 Std. -
Di, 25.09. 14:00 0.0 l/m2 in 6 Std. -
Di, 25.09. 8:00 0.1 l/m2 in 12 Std. -
Di, 25.09. 2:00 0.1 l/m2 in 6 Std. Regen
Mo, 24.09. 20:00 3 l/m2 in 12 Std. Regen
Mo, 24.09. 14:00 0.3 l/m2 in 6 Std. Regen
Ortszeit Niederschlagsmenge Niederschlagsart
Mi, 26.09. 12:00 0.0 l/m2 in 1 Std. -
Mi, 26.09. 11:50 keine Meldung -
Mi, 26.09. 11:40 keine Meldung -
Mi, 26.09. 11:30 0.0 l/m2 in 1 Std. -
Mi, 26.09. 11:20 keine Meldung -
Mi, 26.09. 11:10 keine Meldung -
Mi, 26.09. 11:00 0.0 l/m2 in 1 Std. -
Mi, 26.09. 10:30 0.0 l/m2 in 1 Std. -
Mi, 26.09. 10:00 0.0 l/m2 in 1 Std. -
Mi, 26.09. 9:30 0.0 l/m2 in 1 Std. -
Mi, 26.09. 9:00 0.0 l/m2 in 1 Std. -
Ortszeit Stärke Spitze Richtung
km/h Bft. km/h Grad Sektor
Mi, 26.09. 8:00 6 1 13 210° SW
Mi, 26.09. 2:00 4 1 14 210° SW
Di, 25.09. 20:00 4 1 29 90° O
Di, 25.09. 14:00 11 2 32 340° N
Di, 25.09. 8:00 7 2 18 290° W
Di, 25.09. 2:00 9 2 17 290° W
Mo, 24.09. 20:00 4 1 54 210° SW
Mo, 24.09. 14:00 13 3 54 320° NW
Ortszeit Stärke Spitze Richtung
km/h Bft. km/h Grad Sektor
Mi, 26.09. 12:00 14 3 29 200° S
Mi, 26.09. 11:50 14 3 - 200° S
Mi, 26.09. 11:40 13 3 - 200° S
Mi, 26.09. 11:30 13 3 26 170° S
Mi, 26.09. 11:20 13 3 - 170° S
Mi, 26.09. 11:10 14 3 - 180° S
Mi, 26.09. 11:00 14 3 29 190° S
Mi, 26.09. 10:30 9 2 19 180° S
Mi, 26.09. 10:00 11 2 18 170° S
Mi, 26.09. 9:30 7 2 18 180° S
Mi, 26.09. 9:00 7 2 18 190° S
Ortszeit Untergrenze Bedeckung Gattung
total tief tief mittel hoch
Mi, 26.09. 8:00 5700 m 6/8 6/8 - - -
Mi, 26.09. 2:00 10500 m 7/8 0/8 - - -
Di, 25.09. 20:00 - 0/8 0/8 - - -
Di, 25.09. 14:00 1500 m 7/8 7/8 - - -
Di, 25.09. 8:00 - 0/8 0/8 - - -
Di, 25.09. 2:00 - 0/8 0/8 - - -
Mo, 24.09. 20:00 1800 m 8/8 7/8 - - -
Mo, 24.09. 14:00 990 m 4/8 5/8 - - -
Ortszeit Bedeckungsgrad in Achtel und Wolkenuntergrenze
Mi, 26.09. 12:00 1(9000m)
Mi, 26.09. 11:50 1(9000m)
Mi, 26.09. 11:40 keine Wolken
Mi, 26.09. 11:30 1(6000m)
Mi, 26.09. 11:20 1(6000m) 2(9000m)
Mi, 26.09. 11:10 1(9000m)
Mi, 26.09. 11:00 2(9000m)
Mi, 26.09. 10:30 2(9000m) 2(12000m)
Mi, 26.09. 10:00 6(9000m)
Mi, 26.09. 9:30 1(8700m)
Mi, 26.09. 9:00 keine Wolken
Ortszeit Luftdruck NN (hPa) Tendenz (hPa in 3 Std.)
Mi, 26.09. 8:00 1039 - 0,5
Mi, 26.09. 2:00 1040 - 0,9
Di, 25.09. 20:00 1040 + 0,7
Di, 25.09. 14:00 1039 + 0,4
Di, 25.09. 8:00 1038 + 1,4
Di, 25.09. 2:00 1036 + 1,2
Mo, 24.09. 20:00 1033 + 2,2
Mo, 24.09. 14:00 1030 + 1,0
Ortszeit Luftdruck NN (hPa) Tendenz (hPa in 3 Std.)
Mi, 26.09. 12:00 1035 - 0,8
Mi, 26.09. 11:50 1035 keine Meldung
Mi, 26.09. 11:40 1036 keine Meldung
Mi, 26.09. 11:30 1036 - 0,5
Mi, 26.09. 11:20 1036 keine Meldung
Mi, 26.09. 11:10 1036 keine Meldung
Mi, 26.09. 11:00 1036 - 0,6
Mi, 26.09. 10:30 1037 - 0,4
Mi, 26.09. 10:00 1037 - 0,7
Mi, 26.09. 9:30 1037 - 0,8
Mi, 26.09. 9:00 1038 - 0,5
Ortszeit Schneehöhe (cm)
Mi, 26.09. 8:00 -
Mi, 26.09. 2:00 -
Di, 25.09. 20:00 -
Di, 25.09. 14:00 -
Di, 25.09. 8:00 -
Di, 25.09. 2:00 -
Mo, 24.09. 20:00 -
Mo, 24.09. 14:00 -
Ortszeit Schneehöhe (cm)
Mi, 26.09. 12:00 -
Mi, 26.09. 11:50 -
Mi, 26.09. 11:40 -
Mi, 26.09. 11:30 -
Mi, 26.09. 11:20 -
Mi, 26.09. 11:10 -
Mi, 26.09. 11:00 -
Mi, 26.09. 10:30 -
Mi, 26.09. 10:00 -
Mi, 26.09. 9:30 -
Mi, 26.09. 9:00 -
Link zu dieser Seite / Seite empfehlen

Das Wetter in ...